Time;durP1;ratioP1;P1;durP2;ratioP2;P2;SDS_P1;SDS_P2;PMS_P1;PMS_P2;Temp;Humidity;BMP_temperature;BMP_pressure;BME280_temperature;BME280_humidity;BME280_pressure;Samples;Min_cycle;Max_cycle;Signal;HPM_P1;HPM_P2
2021/05/14 00:02:03;;;;;;;19.65;3.47;;;;;;;;;;5067488;28;20020;-63
2021/05/14 00:04:30;;;;;;;23.02;3.72;;;;;;;;;;5067742;28;20013;-60
2021/05/14 00:06:57;;;;;;;21.63;3.65;;;;;;;;;;5068476;28;20037;-62
2021/05/14 00:09:24;;;;;;;17.38;3.83;;;;;;;;;;5066497;28;20057;-59
2021/05/14 00:11:51;;;;;;;19.25;3.90;;;;;;;;;;5065075;28;20040;-59
2021/05/14 00:14:18;;;;;;;17.80;4.00;;;;;;;;;;5069832;28;20518;-59
2021/05/14 00:16:45;;;;;;;15.05;3.60;;;;;;;;;;5066677;28;20009;-59
2021/05/14 00:19:12;;;;;;;16.75;3.55;;;;;;;;;;5067851;28;20492;-62
2021/05/14 00:21:39;;;;;;;19.40;4.03;;;;;;;;;;5067052;28;20040;-60
2021/05/14 00:24:07;;;;;;;13.13;3.42;;;;;;;;;;5068316;28;20515;-60
2021/05/14 00:26:34;;;;;;;17.50;5.50;;;;;;;;;;5065103;28;20024;-62
2021/05/14 00:29:01;;;;;;;34.97;12.55;;;;;;;;;;5067229;28;20029;-61
2021/05/14 00:31:28;;;;;;;39.83;13.93;;;;;;;;;;5066332;28;20020;-61
2021/05/14 00:33:55;;;;;;;46.15;15.93;;;;;;;;;;5059147;28;20028;-60
2021/05/14 00:36:25;;;;;;;56.15;18.38;;;;;;;;;;5064167;28;20062;-60
2021/05/14 00:38:52;;;;;;;51.05;19.05;;;;;;;;;;5064616;28;20823;-60
2021/05/14 00:41:19;;;;;;;44.85;18.02;;;;;;;;;;5067674;28;20443;-61
2021/05/14 00:43:46;;;;;;;48.40;18.83;;;;;;;;;;5068804;28;20407;-60
2021/05/14 00:46:13;;;;;;;50.67;17.13;;;;;;;;;;5067143;28;20032;-60
2021/05/14 00:48:40;;;;;;;49.25;18.63;;;;;;;;;;5070158;28;20036;-59
2021/05/14 00:51:07;;;;;;;60.25;17.70;;;;;;;;;;5066239;28;20053;-60
2021/05/14 00:53:34;;;;;;;49.42;16.67;;;;;;;;;;5067933;28;20032;-60
2021/05/14 00:56:05;;;;;;;50.33;16.88;;;;;;;;;;5065785;28;20020;-66
2021/05/14 00:58:32;;;;;;;47.72;14.95;;;;;;;;;;5058892;28;20119;-64
2021/05/14 01:00:59;;;;;;;43.90;14.02;;;;;;;;;;5068183;28;20476;-61
2021/05/14 01:03:26;;;;;;;51.47;14.27;;;;;;;;;;5066815;28;20024;-62
2021/05/14 01:05:53;;;;;;;59.95;14.65;;;;;;;;;;5064940;28;20024;-62
2021/05/14 01:08:20;;;;;;;47.33;14.02;;;;;;;;;;5062798;28;20017;-64
2021/05/14 01:10:50;;;;;;;39.15;12.10;;;;;;;;;;5070056;28;20162;-64
2021/05/14 01:13:24;;;;;;;39.58;11.55;;;;;;;;;;5054934;28;20037;-64
2021/05/14 01:15:51;;;;;;;37.25;11.93;;;;;;;;;;5062923;28;20020;-63
2021/05/14 01:18:18;;;;;;;41.65;11.75;;;;;;;;;;5064257;28;20166;-64
2021/05/14 01:20:46;;;;;;;40.42;12.30;;;;;;;;;;5065554;28;20024;-59
2021/05/14 01:23:13;;;;;;;32.63;11.23;;;;;;;;;;5064651;28;20013;-62
2021/05/14 01:25:41;;;;;;;32.50;10.13;;;;;;;;;;5066637;28;20523;-65
2021/05/14 01:28:08;;;;;;;39.05;10.80;;;;;;;;;;5071386;28;20028;-62
2021/05/14 01:30:35;;;;;;;50.38;10.50;;;;;;;;;;5071369;28;20099;-64
2021/05/14 01:33:02;;;;;;;44.17;10.32;;;;;;;;;;5072334;28;20017;-62
2021/05/14 01:35:29;;;;;;;54.20;9.02;;;;;;;;;;5081795;28;20107;-61
2021/05/14 01:37:56;;;;;;;36.92;9.48;;;;;;;;;;5080700;28;20021;-60
2021/05/14 01:40:23;;;;;;;38.75;10.07;;;;;;;;;;5072095;28;20033;-63
2021/05/14 01:42:51;;;;;;;28.08;8.50;;;;;;;;;;5065544;28;20024;-62
2021/05/14 01:45:20;;;;;;;29.73;9.63;;;;;;;;;;5071711;28;20055;-65
2021/05/14 01:47:47;;;;;;;28.58;8.80;;;;;;;;;;5071724;28;20024;-63
2021/05/14 01:50:15;;;;;;;35.92;8.13;;;;;;;;;;5069660;28;21133;-60
2021/05/14 01:52:42;;;;;;;27.67;7.55;;;;;;;;;;5071354;28;20469;-60
2021/05/14 01:55:10;;;;;;;27.85;8.07;;;;;;;;;;5071472;28;20361;-66
2021/05/14 01:57:37;;;;;;;31.15;8.02;;;;;;;;;;5070288;28;20028;-62
2021/05/14 02:00:06;;;;;;;21.42;7.38;;;;;;;;;;5071232;28;20472;-64
2021/05/14 02:02:33;;;;;;;30.77;7.20;;;;;;;;;;5060124;28;20043;-59
2021/05/14 02:05:00;;;;;;;29.98;7.70;;;;;;;;;;5068496;28;20099;-60
2021/05/14 02:07:28;;;;;;;22.45;6.85;;;;;;;;;;5071289;28;20024;-61
2021/05/14 02:09:55;;;;;;;23.13;6.43;;;;;;;;;;5071265;28;20009;-62
2021/05/14 02:12:22;;;;;;;29.10;6.65;;;;;;;;;;5071039;28;20013;-63
2021/05/14 02:14:50;;;;;;;27.50;6.55;;;;;;;;;;5071189;28;20020;-59
2021/05/14 02:17:17;;;;;;;18.90;6.53;;;;;;;;;;5071214;28;20020;-63
2021/05/14 02:19:45;;;;;;;17.98;6.18;;;;;;;;;;5068927;28;20047;-59
2021/05/14 02:22:12;;;;;;;22.13;6.53;;;;;;;;;;5069725;28;20024;-59
2021/05/14 02:24:39;;;;;;;22.80;6.70;;;;;;;;;;5071059;28;20024;-61
2021/05/14 02:27:06;;;;;;;24.23;6.95;;;;;;;;;;5062533;28;20495;-60
2021/05/14 02:29:34;;;;;;;22.02;6.47;;;;;;;;;;5074512;28;20035;-63
2021/05/14 02:32:05;;;;;;;25.35;6.30;;;;;;;;;;5080470;28;20440;-64
2021/05/14 02:34:32;;;;;;;12.70;4.90;;;;;;;;;;5083233;28;20051;-65
2021/05/14 02:37:00;;;;;;;27.48;6.13;;;;;;;;;;5083312;28;20029;-66
2021/05/14 02:39:27;;;;;;;17.73;5.85;;;;;;;;;;5077048;28;20035;-64
2021/05/14 02:41:54;;;;;;;22.98;5.68;;;;;;;;;;5071009;28;20062;-66
2021/05/14 02:44:21;;;;;;;17.13;5.60;;;;;;;;;;5070827;28;20024;-65
2021/05/14 02:46:48;;;;;;;19.85;5.80;;;;;;;;;;5071254;28;20031;-67
2021/05/14 02:49:15;;;;;;;23.45;5.82;;;;;;;;;;5067830;28;20045;-66
2021/05/14 02:51:42;;;;;;;16.90;5.57;;;;;;;;;;5071143;28;20031;-63
2021/05/14 02:54:09;;;;;;;20.40;6.50;;;;;;;;;;5068024;28;20028;-66
2021/05/14 02:56:36;;;;;;;25.85;6.25;;;;;;;;;;5071256;28;20079;-66
2021/05/14 02:59:03;;;;;;;20.23;5.93;;;;;;;;;;5070350;28;20037;-64
2021/05/14 03:01:30;;;;;;;18.10;5.15;;;;;;;;;;5070675;28;20404;-65
2021/05/14 03:03:57;;;;;;;18.00;5.45;;;;;;;;;;5071160;28;20024;-65
2021/05/14 03:06:24;;;;;;;21.13;5.57;;;;;;;;;;5070699;28;20024;-66
2021/05/14 03:08:51;;;;;;;17.48;5.22;;;;;;;;;;5071011;28;20044;-66
2021/05/14 03:11:18;;;;;;;16.23;5.70;;;;;;;;;;5070817;28;20020;-66
2021/05/14 03:13:45;;;;;;;15.75;4.80;;;;;;;;;;5070822;28;20349;-66
2021/05/14 03:16:12;;;;;;;15.93;5.35;;;;;;;;;;5070321;28;20494;-66
2021/05/14 03:18:39;;;;;;;20.42;4.63;;;;;;;;;;5071015;28;20041;-66
2021/05/14 03:21:06;;;;;;;13.15;4.47;;;;;;;;;;5070935;28;20012;-65
2021/05/14 03:23:33;;;;;;;15.80;4.75;;;;;;;;;;5071351;28;20020;-66
2021/05/14 03:26:00;;;;;;;13.52;4.88;;;;;;;;;;5070993;28;20455;-66
2021/05/14 03:28:27;;;;;;;15.63;4.80;;;;;;;;;;5071331;28;20042;-65
2021/05/14 03:30:54;;;;;;;13.98;4.53;;;;;;;;;;5070609;28;20024;-66
2021/05/14 03:33:21;;;;;;;20.27;5.20;;;;;;;;;;5071558;28;20016;-66
2021/05/14 03:35:49;;;;;;;16.38;5.00;;;;;;;;;;5070542;28;20024;-65
2021/05/14 03:38:16;;;;;;;14.40;4.40;;;;;;;;;;5071184;28;20117;-66
2021/05/14 03:40:44;;;;;;;15.68;4.90;;;;;;;;;;5071324;28;20683;-66
2021/05/14 03:43:11;;;;;;;11.90;4.35;;;;;;;;;;5070896;28;20103;-66
2021/05/14 03:45:38;;;;;;;17.67;4.18;;;;;;;;;;5071010;28;20028;-66
2021/05/14 03:48:18;;;;;;;16.08;4.82;;;;;;;;;;5074360;28;20094;-65
2021/05/14 03:50:46;;;;;;;14.00;4.47;;;;;;;;;;5075005;28;20056;-65
2021/05/14 03:53:13;;;;;;;14.30;5.00;;;;;;;;;;5074261;28;20111;-65
2021/05/14 03:55:40;;;;;;;13.27;4.45;;;;;;;;;;5073448;28;20028;-65
2021/05/14 03:58:07;;;;;;;12.85;5.13;;;;;;;;;;5074077;28;20016;-65
2021/05/14 04:00:34;;;;;;;11.02;4.32;;;;;;;;;;5074496;28;20050;-65
2021/05/14 04:03:01;;;;;;;10.35;4.18;;;;;;;;;;5074066;28;20020;-65
2021/05/14 04:05:28;;;;;;;14.73;4.55;;;;;;;;;;5074664;28;20021;-66
2021/05/14 04:07:56;;;;;;;13.98;4.28;;;;;;;;;;5073901;28;20017;-65
2021/05/14 04:16:08;;;;;;;14.68;4.47;;;;;;;;;;5074380;28;20067;-61
2021/05/14 04:18:38;;;;;;;10.70;3.88;;;;;;;;;;5073758;28;20074;-65
2021/05/14 04:21:06;;;;;;;11.15;3.95;;;;;;;;;;5074352;28;20103;-65
2021/05/14 04:23:33;;;;;;;14.30;4.13;;;;;;;;;;5073659;28;20070;-65
2021/05/14 04:26:01;;;;;;;12.70;4.43;;;;;;;;;;5073975;28;20024;-66
2021/05/14 04:28:28;;;;;;;9.60;3.90;;;;;;;;;;5073590;28;20025;-64
2021/05/14 04:30:55;;;;;;;13.98;4.13;;;;;;;;;;5074306;28;20017;-65
2021/05/14 04:33:22;;;;;;;10.25;4.03;;;;;;;;;;5073491;28;20033;-67
2021/05/14 04:35:49;;;;;;;11.57;3.83;;;;;;;;;;5073728;28;20044;-65
2021/05/14 04:38:16;;;;;;;9.98;4.05;;;;;;;;;;5073278;28;20800;-64
2021/05/14 04:40:43;;;;;;;11.30;3.80;;;;;;;;;;5073822;28;20555;-66
2021/05/14 04:43:10;;;;;;;9.75;3.60;;;;;;;;;;5073715;28;20387;-66
2021/05/14 04:45:37;;;;;;;9.90;3.83;;;;;;;;;;5073179;28;20023;-66
2021/05/14 04:48:05;;;;;;;8.80;3.60;;;;;;;;;;5073502;28;20012;-66
2021/05/14 04:50:33;;;;;;;12.52;3.80;;;;;;;;;;5073224;28;20052;-67
2021/05/14 04:53:05;;;;;;;8.60;3.88;;;;;;;;;;5073664;28;20481;-66
2021/05/14 04:55:33;;;;;;;9.10;3.97;;;;;;;;;;5072819;28;20031;-65
2021/05/14 04:58:00;;;;;;;11.48;4.00;;;;;;;;;;5072368;28;20051;-66
2021/05/14 05:00:27;;;;;;;10.57;3.92;;;;;;;;;;5073039;28;20079;-65
2021/05/14 05:02:55;;;;;;;7.68;3.67;;;;;;;;;;5073459;28;20119;-66
2021/05/14 05:05:23;;;;;;;12.55;3.92;;;;;;;;;;5072741;28;20100;-66
2021/05/14 05:07:50;;;;;;;9.48;4.25;;;;;;;;;;5073247;28;20028;-66
2021/05/14 05:10:20;;;;;;;11.95;3.78;;;;;;;;;;5072889;28;20529;-65
2021/05/14 05:12:48;;;;;;;9.85;3.67;;;;;;;;;;5073290;28;20032;-65
2021/05/14 05:15:15;;;;;;;7.65;3.90;;;;;;;;;;5072657;28;20633;-64
2021/05/14 05:17:42;;;;;;;9.63;3.85;;;;;;;;;;5072978;28;20369;-65
2021/05/14 05:20:10;;;;;;;8.43;3.80;;;;;;;;;;5072362;28;20032;-64
2021/05/14 05:22:37;;;;;;;6.20;3.30;;;;;;;;;;5073025;28;20044;-64
2021/05/14 05:25:04;;;;;;;8.32;3.90;;;;;;;;;;5073055;28;20391;-66
2021/05/14 05:27:31;;;;;;;10.68;3.75;;;;;;;;;;5072206;28;20029;-66
2021/05/14 05:29:58;;;;;;;9.70;3.40;;;;;;;;;;5072771;28;20128;-65
2021/05/14 05:32:25;;;;;;;9.75;3.65;;;;;;;;;;5072489;28;20482;-66
2021/05/14 05:34:52;;;;;;;11.32;3.88;;;;;;;;;;5072579;28;20496;-66
2021/05/14 05:37:21;;;;;;;9.85;3.72;;;;;;;;;;5072057;28;20047;-66
2021/05/14 05:39:48;;;;;;;14.35;4.13;;;;;;;;;;5072434;28;20115;-66
2021/05/14 05:42:15;;;;;;;8.98;3.90;;;;;;;;;;5072132;28;20107;-65
2021/05/14 05:44:42;;;;;;;7.85;3.38;;;;;;;;;;5072480;28;20027;-65
2021/05/14 05:47:09;;;;;;;8.10;4.00;;;;;;;;;;5072058;28;20051;-66
2021/05/14 05:49:36;;;;;;;8.02;3.22;;;;;;;;;;5072066;28;20044;-64
2021/05/14 05:52:03;;;;;;;11.40;4.13;;;;;;;;;;5071921;28;20017;-66
2021/05/14 05:54:31;;;;;;;8.23;3.15;;;;;;;;;;5072544;28;20017;-62
2021/05/14 05:57:00;;;;;;;7.10;3.20;;;;;;;;;;5071732;28;20024;-61
2021/05/14 05:59:27;;;;;;;8.02;3.47;;;;;;;;;;5072096;28;20434;-60
2021/05/14 06:01:54;;;;;;;9.63;4.47;;;;;;;;;;5071927;28;20407;-62
2021/05/14 06:04:21;;;;;;;9.05;3.72;;;;;;;;;;5072094;28;20031;-62
2021/05/14 06:06:48;;;;;;;9.43;3.70;;;;;;;;;;5072030;28;20019;-60
2021/05/14 06:09:15;;;;;;;10.45;3.90;;;;;;;;;;5071434;28;20025;-62
2021/05/14 06:11:42;;;;;;;8.70;4.10;;;;;;;;;;5072258;28;20055;-61
2021/05/14 06:14:09;;;;;;;7.88;3.80;;;;;;;;;;5071686;28;20052;-61
2021/05/14 06:16:36;;;;;;;6.25;3.47;;;;;;;;;;5072264;28;20527;-60
2021/05/14 06:21:49;;;;;;;6.68;3.25;;;;;;;;;;5072248;28;20383;-61
2021/05/14 06:24:20;;;;;;;8.27;3.50;;;;;;;;;;5071587;28;20021;-61
2021/05/14 06:26:47;;;;;;;6.78;3.72;;;;;;;;;;5072015;28;20111;-60
2021/05/14 06:29:15;;;;;;;7.45;3.47;;;;;;;;;;5071292;28;20418;-66
2021/05/14 06:31:46;;;;;;;7.15;3.40;;;;;;;;;;5071849;28;20028;-66
2021/05/14 06:34:13;;;;;;;9.30;3.72;;;;;;;;;;5071356;28;20028;-65
2021/05/14 06:36:40;;;;;;;7.10;3.60;;;;;;;;;;5070958;28;20050;-66
2021/05/14 06:39:07;;;;;;;8.75;3.38;;;;;;;;;;5070945;28;20111;-66
2021/05/14 06:41:34;;;;;;;11.52;4.05;;;;;;;;;;5071799;28;20021;-66
2021/05/14 06:44:01;;;;;;;9.45;3.75;;;;;;;;;;5071431;28;20361;-66
2021/05/14 06:46:28;;;;;;;6.88;3.22;;;;;;;;;;5071748;28;20027;-65
2021/05/14 06:48:55;;;;;;;8.32;3.25;;;;;;;;;;5069522;28;20419;-60
2021/05/14 06:51:22;;;;;;;7.18;3.30;;;;;;;;;;5071875;28;20067;-61
2021/05/14 06:53:50;;;;;;;7.47;3.53;;;;;;;;;;5071098;28;20016;-61
2021/05/14 06:56:17;;;;;;;9.07;3.60;;;;;;;;;;5071491;28;20029;-61
2021/05/14 06:58:44;;;;;;;5.78;2.85;;;;;;;;;;5071426;28;20063;-60
2021/05/14 07:01:11;;;;;;;8.18;2.97;;;;;;;;;;5071232;28;20024;-60
2021/05/14 07:03:38;;;;;;;8.27;3.47;;;;;;;;;;5071650;28;20143;-61
2021/05/14 07:06:05;;;;;;;6.97;3.22;;;;;;;;;;5071287;28;20024;-62
2021/05/14 07:08:33;;;;;;;7.10;2.85;;;;;;;;;;5071478;28;20012;-66
2021/05/14 07:11:00;;;;;;;8.75;3.35;;;;;;;;;;5071101;28;20468;-66
2021/05/14 07:13:26;;;;;;;10.70;3.38;;;;;;;;;;5071595;28;20024;-66
2021/05/14 07:15:54;;;;;;;6.93;3.10;;;;;;;;;;5071046;28;20021;-65
2021/05/14 07:18:21;;;;;;;6.15;2.80;;;;;;;;;;5071297;28;20009;-66
2021/05/14 07:20:48;;;;;;;8.98;3.33;;;;;;;;;;5071562;28;20025;-64
2021/05/14 07:23:15;;;;;;;5.55;3.08;;;;;;;;;;5075477;28;20023;-66
2021/05/14 07:25:42;;;;;;;4.65;2.60;;;;;;;;;;5074638;28;20055;-66
2021/05/14 07:28:09;;;;;;;6.13;2.85;;;;;;;;;;5074800;28;20044;-66
2021/05/14 07:30:35;;;;;;;7.60;3.17;;;;;;;;;;5074682;28;20640;-66
2021/05/14 07:33:02;;;;;;;4.97;2.72;;;;;;;;;;5075120;28;20024;-65
2021/05/14 07:35:29;;;;;;;7.85;3.25;;;;;;;;;;5075105;28;20415;-65
2021/05/14 07:37:56;;;;;;;6.97;2.83;;;;;;;;;;5074523;28;20020;-64
2021/05/14 07:40:23;;;;;;;7.80;3.20;;;;;;;;;;5074827;28;20101;-66
2021/05/14 07:42:50;;;;;;;7.30;3.00;;;;;;;;;;5073134;28;20020;-65
2021/05/14 07:45:17;;;;;;;9.23;3.00;;;;;;;;;;5075078;28;20028;-66
2021/05/14 07:47:44;;;;;;;5.57;3.20;;;;;;;;;;5074276;28;20062;-67
2021/05/14 07:50:12;;;;;;;4.63;2.83;;;;;;;;;;5074572;28;20535;-65
2021/05/14 07:52:40;;;;;;;7.45;2.72;;;;;;;;;;5074512;28;20027;-66
2021/05/14 07:55:08;;;;;;;7.53;2.90;;;;;;;;;;5074754;28;20048;-65
2021/05/14 07:57:35;;;;;;;7.78;3.25;;;;;;;;;;5074036;28;20036;-64
2021/05/14 08:00:01;;;;;;;7.00;2.63;;;;;;;;;;5074485;28;20058;-66
2021/05/14 08:02:28;;;;;;;6.30;2.78;;;;;;;;;;5074189;28;20471;-66
2021/05/14 08:04:55;;;;;;;5.53;2.58;;;;;;;;;;5074547;28;20021;-66
2021/05/14 08:07:23;;;;;;;5.25;2.35;;;;;;;;;;5056377;28;20112;-65
2021/05/14 08:09:49;;;;;;;8.50;3.20;;;;;;;;;;5074239;28;20021;-65
2021/05/14 08:12:17;;;;;;;6.75;2.58;;;;;;;;;;5074159;28;20020;-64
2021/05/14 08:14:44;;;;;;;6.60;2.80;;;;;;;;;;5073142;28;20468;-66
2021/05/14 08:17:11;;;;;;;5.65;2.70;;;;;;;;;;5074244;28;20099;-65
2021/05/14 08:19:38;;;;;;;9.38;2.80;;;;;;;;;;5073430;28;20028;-66
2021/05/14 08:22:05;;;;;;;5.55;2.75;;;;;;;;;;5074443;28;20021;-66
2021/05/14 08:24:32;;;;;;;8.27;2.60;;;;;;;;;;5073727;28;20012;-66
2021/05/14 08:26:59;;;;;;;5.47;2.50;;;;;;;;;;5074023;28;20027;-66
2021/05/14 08:29:26;;;;;;;4.97;2.40;;;;;;;;;;5073517;28;20036;-64
2021/05/14 08:31:53;;;;;;;5.40;2.47;;;;;;;;;;5073667;28;20082;-66
2021/05/14 08:34:21;;;;;;;6.05;2.30;;;;;;;;;;5073553;28;20074;-66
2021/05/14 08:36:48;;;;;;;5.78;2.53;;;;;;;;;;5074107;28;20472;-66
2021/05/14 08:39:15;;;;;;;4.90;2.33;;;;;;;;;;5072920;28;20035;-66
2021/05/14 08:41:42;;;;;;;5.25;2.50;;;;;;;;;;5073716;28;20056;-65
2021/05/14 08:44:09;;;;;;;4.82;2.17;;;;;;;;;;5073547;28;20039;-65
2021/05/14 08:46:37;;;;;;;4.80;2.30;;;;;;;;;;5073545;28;20013;-65
2021/05/14 08:49:04;;;;;;;6.85;2.55;;;;;;;;;;5072909;28;20055;-63
2021/05/14 08:51:31;;;;;;;4.13;2.35;;;;;;;;;;5072810;28;20039;-62
2021/05/14 08:54:05;;;;;;;6.60;2.65;;;;;;;;;;5073004;28;20480;-63
2021/05/14 08:56:32;;;;;;;7.90;2.95;;;;;;;;;;5073282;28;20040;-66
2021/05/14 08:59:00;;;;;;;5.15;2.30;;;;;;;;;;5073232;28;20538;-66
2021/05/14 09:01:27;;;;;;;6.47;2.65;;;;;;;;;;5072929;28;20464;-66
2021/05/14 09:04:02;;;;;;;8.45;2.53;;;;;;;;;;5073393;28;20017;-67
2021/05/14 09:06:33;;;;;;;4.20;2.45;;;;;;;;;;5072753;28;20438;-66
2021/05/14 09:09:02;;;;;;;4.97;2.47;;;;;;;;;;5073165;28;20031;-64
2021/05/14 09:11:35;;;;;;;5.25;2.45;;;;;;;;;;5072705;28;20069;-65
2021/05/14 09:14:03;;;;;;;5.32;2.40;;;;;;;;;;5073115;28;20427;-66
2021/05/14 09:16:45;;;;;;;8.40;2.67;;;;;;;;;;5072522;28;20407;-65
2021/05/14 09:19:12;;;;;;;4.68;2.25;;;;;;;;;;5072960;28;20067;-65
2021/05/14 09:21:39;;;;;;;6.40;2.55;;;;;;;;;;5072232;28;20480;-64
2021/05/14 09:24:06;;;;;;;5.78;2.85;;;;;;;;;;5072941;28;20028;-65
2021/05/14 09:26:34;;;;;;;4.95;2.63;;;;;;;;;;5072381;28;20016;-65
2021/05/14 09:29:01;;;;;;;6.32;2.60;;;;;;;;;;5072955;28;20028;-64
2021/05/14 09:31:28;;;;;;;4.53;2.50;;;;;;;;;;5072254;28;20032;-66
2021/05/14 09:33:59;;;;;;;6.25;2.47;;;;;;;;;;5072626;28;20021;-64
2021/05/14 09:36:33;;;;;;;3.95;2.50;;;;;;;;;;5072289;28;20028;-62
2021/05/14 09:39:01;;;;;;;5.88;2.53;;;;;;;;;;5072573;28;20058;-65
2021/05/14 09:41:38;;;;;;;6.95;2.67;;;;;;;;;;5072067;28;20025;-65
2021/05/14 09:44:05;;;;;;;4.47;2.55;;;;;;;;;;5071920;28;20052;-64
2021/05/14 09:46:36;;;;;;;4.07;2.33;;;;;;;;;;5072189;28;20194;-66
2021/05/14 09:49:11;;;;;;;6.13;2.85;;;;;;;;;;5072277;28;20619;-65
2021/05/14 09:51:58;;;;;;;4.88;2.50;;;;;;;;;;5071542;28;20024;-65
2021/05/14 09:54:35;;;;;;;6.35;2.28;;;;;;;;;;5072384;28;20056;-65
2021/05/14 09:57:14;;;;;;;5.63;2.20;;;;;;;;;;5071971;28;20035;-63
2021/05/14 09:59:41;;;;;;;4.78;2.80;;;;;;;;;;5071918;28;20036;-65
2021/05/14 10:02:18;;;;;;;6.07;2.63;;;;;;;;;;5071820;28;20031;-64
2021/05/14 10:04:45;;;;;;;6.05;2.63;;;;;;;;;;5072457;28;20029;-66
2021/05/14 10:07:12;;;;;;;4.30;2.30;;;;;;;;;;5071759;28;20020;-66
2021/05/14 10:09:40;;;;;;;7.25;2.72;;;;;;;;;;5072040;28;20021;-66
2021/05/14 10:12:08;;;;;;;9.45;2.60;;;;;;;;;;5071446;28;20539;-66
2021/05/14 10:14:36;;;;;;;8.43;2.40;;;;;;;;;;5072106;28;20020;-66
2021/05/14 10:17:03;;;;;;;6.03;2.53;;;;;;;;;;5071854;28;20070;-64
2021/05/14 10:19:30;;;;;;;4.60;2.55;;;;;;;;;;5071878;28;20031;-65
2021/05/14 10:21:58;;;;;;;6.47;2.63;;;;;;;;;;5071821;28;20016;-59
2021/05/14 10:24:43;;;;;;;3.95;1.98;;;;;;;;;;5071536;28;20379;-60
2021/05/14 10:27:27;;;;;;;5.50;2.72;;;;;;;;;;5071945;28;20028;-60
2021/05/14 10:29:55;;;;;;;4.85;2.25;;;;;;;;;;5071550;28;20472;-64
2021/05/14 10:32:40;;;;;;;3.80;2.45;;;;;;;;;;5071870;28;20025;-66
2021/05/14 10:35:08;;;;;;;4.55;2.40;;;;;;;;;;5071675;28;20012;-65
2021/05/14 10:37:45;;;;;;;4.88;2.35;;;;;;;;;;5071176;28;20040;-66
2021/05/14 10:40:34;;;;;;;5.88;2.38;;;;;;;;;;5056566;28;20421;-63
2021/05/14 10:43:05;;;;;;;8.30;2.60;;;;;;;;;;5061658;28;20024;-63
2021/05/14 10:45:34;;;;;;;5.05;2.35;;;;;;;;;;5064319;28;20035;-66
2021/05/14 10:48:01;;;;;;;4.18;2.40;;;;;;;;;;5055895;28;20048;-65
2021/05/14 10:50:35;;;;;;;7.70;2.85;;;;;;;;;;5056491;28;20025;-62
2021/05/14 10:53:21;;;;;;;8.18;2.47;;;;;;;;;;5061372;28;20021;-66
2021/05/14 10:55:49;;;;;;;8.40;2.33;;;;;;;;;;5060535;28;20048;-65
2021/05/14 10:58:34;;;;;;;7.88;2.70;;;;;;;;;;5057063;28;20025;-65
2021/05/14 11:01:01;;;;;;;5.82;2.50;;;;;;;;;;5064350;28;20055;-65
2021/05/14 11:03:32;;;;;;;8.45;2.40;;;;;;;;;;5061305;28;20029;-65
2021/05/14 11:06:19;;;;;;;9.63;2.88;;;;;;;;;;5064800;28;20043;-63
2021/05/14 11:09:05;;;;;;;5.28;2.55;;;;;;;;;;5060516;28;20054;-65
2021/05/14 11:11:33;;;;;;;5.03;2.72;;;;;;;;;;5068270;28;20032;-65
2021/05/14 11:14:21;;;;;;;14.80;3.20;;;;;;;;;;5065850;28;20061;-58
2021/05/14 11:16:52;;;;;;;26.00;3.22;;;;;;;;;;5057854;28;20035;-67
2021/05/14 11:19:20;;;;;;;26.67;3.25;;;;;;;;;;5065555;28;20025;-71
2021/05/14 11:22:01;;;;;;;13.60;2.75;;;;;;;;;;5067523;28;20021;-72
2021/05/14 11:24:38;;;;;;;17.45;3.45;;;;;;;;;;5061884;28;20021;-71
2021/05/14 11:27:10;;;;;;;76.63;6.00;;;;;;;;;;5062322;28;20714;-62
2021/05/14 11:29:44;;;;;;;36.78;5.40;;;;;;;;;;5062787;28;20385;-69
2021/05/14 11:32:28;;;;;;;31.02;5.25;;;;;;;;;;5064846;28;20037;-69
2021/05/14 11:35:07;;;;;;;21.00;6.18;;;;;;;;;;5071835;28;20039;-63
2021/05/14 11:37:36;;;;;;;26.88;6.78;;;;;;;;;;5063698;28;20067;-64
2021/05/14 11:40:11;;;;;;;23.83;5.72;;;;;;;;;;5057183;28;20532;-66
2021/05/14 11:42:43;;;;;;;22.73;5.32;;;;;;;;;;5052122;28;20021;-62
2021/05/14 11:45:31;;;;;;;20.50;4.18;;;;;;;;;;5067335;28;20024;-62
2021/05/14 11:48:02;;;;;;;34.72;5.78;;;;;;;;;;5054232;28;20418;-63
2021/05/14 11:50:29;;;;;;;23.45;4.78;;;;;;;;;;5062462;28;20029;-65
2021/05/14 11:52:57;;;;;;;28.98;5.32;;;;;;;;;;5053925;28;20071;-59
2021/05/14 11:55:24;;;;;;;27.63;5.10;;;;;;;;;;5082781;28;20383;-60
2021/05/14 11:57:52;;;;;;;22.77;5.05;;;;;;;;;;5066391;28;20028;-59
2021/05/14 12:00:30;;;;;;;17.40;4.53;;;;;;;;;;5066500;28;20029;-63
2021/05/14 12:02:59;;;;;;;23.27;4.57;;;;;;;;;;5063962;28;20028;-59
2021/05/14 12:05:28;;;;;;;26.48;5.20;;;;;;;;;;5058655;28;20492;-59
2021/05/14 12:08:11;;;;;;;15.75;4.15;;;;;;;;;;5064422;28;20041;-59
2021/05/14 12:10:48;;;;;;;21.92;4.38;;;;;;;;;;5071762;28;20024;-64
2021/05/14 12:13:15;;;;;;;19.73;4.47;;;;;;;;;;5066329;28;20028;-60
2021/05/14 12:15:43;;;;;;;17.75;4.03;;;;;;;;;;5069106;28;20419;-57
2021/05/14 12:18:10;;;;;;;21.83;4.53;;;;;;;;;;5064898;28;20052;-59
2021/05/14 12:20:41;;;;;;;17.40;4.30;;;;;;;;;;5071895;28;20028;-58
2021/05/14 12:23:10;;;;;;;24.88;5.00;;;;;;;;;;5069775;28;20502;-60
2021/05/14 12:25:47;;;;;;;16.55;4.43;;;;;;;;;;5067059;28;20116;-59
2021/05/14 12:28:30;;;;;;;21.25;4.35;;;;;;;;;;5069322;28;20107;-60
2021/05/14 12:30:57;;;;;;;20.25;4.70;;;;;;;;;;5067906;28;20139;-59
2021/05/14 12:33:24;;;;;;;22.10;4.05;;;;;;;;;;5067228;28;20020;-59
2021/05/14 12:36:07;;;;;;;19.13;4.20;;;;;;;;;;5069517;28;20112;-60
2021/05/14 12:38:45;;;;;;;17.52;4.25;;;;;;;;;;5066001;28;20082;-61
2021/05/14 12:41:47;;;;;;;17.00;3.70;;;;;;;;;;5057693;28;20034;-59
2021/05/14 12:44:35;;;;;;;15.33;4.27;;;;;;;;;;5042439;28;20037;-59
2021/05/14 12:47:02;;;;;;;15.00;3.40;;;;;;;;;;5059510;28;20040;-68
2021/05/14 12:49:30;;;;;;;15.25;3.15;;;;;;;;;;5055312;28;20047;-70
2021/05/14 12:52:03;;;;;;;14.05;3.80;;;;;;;;;;5063571;28;20392;-62
2021/05/14 12:54:32;;;;;;;23.98;4.10;;;;;;;;;;5054853;28;20014;-61
2021/05/14 12:56:59;;;;;;;17.27;3.35;;;;;;;;;;5054278;28;20040;-61
2021/05/14 12:59:26;;;;;;;14.57;3.05;;;;;;;;;;5062305;28;20029;-63
2021/05/14 13:01:54;;;;;;;19.35;3.17;;;;;;;;;;5068385;28;20028;-62
2021/05/14 13:04:30;;;;;;;31.13;3.28;;;;;;;;;;5066214;28;20415;-67
2021/05/14 13:07:07;;;;;;;22.20;3.60;;;;;;;;;;5069823;28;20023;-73
2021/05/14 13:09:35;;;;;;;22.80;3.42;;;;;;;;;;5053693;28;20021;-72
2021/05/14 13:12:02;;;;;;;28.20;2.95;;;;;;;;;;5059617;28;20027;-67
2021/05/14 13:14:30;;;;;;;23.00;3.30;;;;;;;;;;5067693;28;20392;-61
2021/05/14 13:16:57;;;;;;;26.83;3.50;;;;;;;;;;5062470;28;20021;-63
2021/05/14 13:19:25;;;;;;;28.35;4.20;;;;;;;;;;5066674;28;20021;-61
2021/05/14 13:21:52;;;;;;;25.63;3.95;;;;;;;;;;5063100;28;20052;-63
2021/05/14 13:24:19;;;;;;;31.67;4.25;;;;;;;;;;5061049;28;20023;-65
2021/05/14 13:26:46;;;;;;;25.02;3.38;;;;;;;;;;5070032;28;20031;-62
2021/05/14 13:29:13;;;;;;;17.05;3.20;;;;;;;;;;5066782;28;20029;-65
2021/05/14 13:31:40;;;;;;;32.00;2.95;;;;;;;;;;5065808;28;20536;-69
2021/05/14 13:34:07;;;;;;;24.60;3.45;;;;;;;;;;5064262;28;20107;-63
2021/05/14 13:36:34;;;;;;;17.52;2.65;;;;;;;;;;5066988;28;20012;-67
2021/05/14 13:39:01;;;;;;;65.07;7.05;;;;;;;;;;5062507;28;20028;-65
2021/05/14 13:41:28;;;;;;;81.20;6.93;;;;;;;;;;5057370;28;20029;-72
2021/05/14 13:43:56;;;;;;;30.02;4.30;;;;;;;;;;5060520;28;20104;-67
2021/05/14 13:46:23;;;;;;;40.03;4.45;;;;;;;;;;5062340;28;20028;-65
2021/05/14 13:48:50;;;;;;;33.60;4.20;;;;;;;;;;5055417;28;20044;-70
2021/05/14 13:51:17;;;;;;;36.33;4.25;;;;;;;;;;5066519;28;20087;-61
2021/05/14 13:53:44;;;;;;;15.30;3.97;;;;;;;;;;5053909;28;20415;-62
2021/05/14 13:56:12;;;;;;;22.45;3.15;;;;;;;;;;5062469;28;20016;-60
2021/05/14 13:58:39;;;;;;;25.25;3.28;;;;;;;;;;5062413;28;20021;-60
2021/05/14 14:01:06;;;;;;;28.77;3.72;;;;;;;;;;5055960;28;20024;-60
2021/05/14 14:03:34;;;;;;;24.60;3.05;;;;;;;;;;5061869;28;20029;-61
2021/05/14 14:06:03;;;;;;;28.60;3.30;;;;;;;;;;5059326;28;20024;-64
2021/05/14 14:08:30;;;;;;;21.58;3.63;;;;;;;;;;5052986;28;20067;-64
2021/05/14 14:10:57;;;;;;;42.25;3.47;;;;;;;;;;5053381;28;20112;-65
2021/05/14 14:13:24;;;;;;;24.13;2.97;;;;;;;;;;5051039;28;20053;-62
2021/05/14 14:15:52;;;;;;;30.83;3.05;;;;;;;;;;5054931;28;20431;-62
2021/05/14 14:18:19;;;;;;;28.85;2.83;;;;;;;;;;5055759;28;20552;-64
2021/05/14 14:20:46;;;;;;;23.77;3.58;;;;;;;;;;5062758;28;20028;-65
2021/05/14 14:23:13;;;;;;;24.75;3.40;;;;;;;;;;5066832;28;20070;-61
2021/05/14 14:25:40;;;;;;;19.48;2.45;;;;;;;;;;5062136;28;20071;-69
2021/05/14 14:28:07;;;;;;;17.80;2.60;;;;;;;;;;5063900;28;20024;-68
2021/05/14 14:30:35;;;;;;;21.45;3.03;;;;;;;;;;5065825;28;20036;-65
2021/05/14 14:33:02;;;;;;;18.52;3.17;;;;;;;;;;5064137;28;20012;-67
2021/05/14 14:35:29;;;;;;;12.88;2.58;;;;;;;;;;5062241;28;20028;-65
2021/05/14 14:37:56;;;;;;;22.65;2.65;;;;;;;;;;5062924;28;20039;-70
2021/05/14 14:40:23;;;;;;;16.38;2.65;;;;;;;;;;5068197;28;20047;-70
2021/05/14 14:42:50;;;;;;;18.95;3.15;;;;;;;;;;5048482;28;20029;-71
2021/05/14 14:45:17;;;;;;;19.65;2.63;;;;;;;;;;5060707;28;20032;-61
2021/05/14 14:47:44;;;;;;;18.75;3.10;;;;;;;;;;5063327;28;20388;-69
2021/05/14 14:50:13;;;;;;;17.30;2.75;;;;;;;;;;5063398;28;20043;-75
2021/05/14 14:52:42;;;;;;;15.25;2.58;;;;;;;;;;5065307;28;20054;-67